createdAt,value
2018-09-30T00:01:57.412Z,67.48
2018-09-30T00:04:26.734Z,68.09
2018-09-30T00:06:55.911Z,69.52
2018-09-30T00:09:30.889Z,66.66
2018-09-30T00:12:01.946Z,67.88
2018-09-30T00:14:31.412Z,66.93
2018-09-30T00:17:01.834Z,68.14
2018-09-30T00:19:31.090Z,68.64
2018-09-30T00:22:00.373Z,69.22
2018-09-30T00:24:34.719Z,69.74
2018-09-30T00:27:08.024Z,69.51
2018-09-30T00:29:37.302Z,70.38
2018-09-30T00:32:06.606Z,67.41
2018-09-30T00:34:35.933Z,67.34
2018-09-30T00:37:05.214Z,66.46
2018-09-30T00:39:34.565Z,68.53
2018-09-30T00:42:03.846Z,67.03
2018-09-30T00:44:33.109Z,66.98
2018-09-30T00:47:02.297Z,66.29
2018-09-30T00:49:31.743Z,68.29
2018-09-30T00:52:01.014Z,66.62
2018-09-30T00:54:30.337Z,65.94
2018-09-30T00:56:59.651Z,65.78
2018-09-30T00:59:28.921Z,65.15
2018-09-30T01:01:58.198Z,68.48
2018-09-30T01:04:27.549Z,67.33
2018-09-30T01:06:56.941Z,68.46
2018-09-30T01:09:26.228Z,65.97
2018-09-30T01:11:55.550Z,68.68
2018-09-30T01:14:24.782Z,67.28
2018-09-30T01:16:54.045Z,66.87
2018-09-30T01:19:23.391Z,67.02
2018-09-30T01:21:52.690Z,66.81
2018-09-30T01:24:22.007Z,68.18
2018-09-30T01:26:51.288Z,66.21
2018-09-30T01:29:20.645Z,67.52
2018-09-30T01:31:50.053Z,65.97
2018-09-30T01:34:19.430Z,67.33
2018-09-30T01:36:48.751Z,67.56
2018-09-30T01:39:18.045Z,68.79
2018-09-30T01:41:47.293Z,68.17
2018-09-30T01:44:16.546Z,67.64
2018-09-30T01:46:45.790Z,69.28
2018-09-30T01:49:14.965Z,69.51
2018-09-30T01:51:44.240Z,68.54
2018-09-30T01:54:13.346Z,69.46
2018-09-30T01:56:42.690Z,69.47
2018-09-30T01:59:11.966Z,70.08
2018-09-30T02:01:41.246Z,71.45
2018-09-30T02:04:10.501Z,70.84
2018-09-30T02:06:39.833Z,73.04
2018-09-30T02:09:09.053Z,72.58
2018-09-30T02:11:38.390Z,72.57
2018-09-30T02:14:07.637Z,70.65
2018-09-30T02:16:36.905Z,70.91
2018-09-30T02:19:06.233Z,70.05
2018-09-30T02:21:35.445Z,71.80
2018-09-30T02:24:04.633Z,72.51
2018-09-30T02:26:33.893Z,71.33
2018-09-30T02:29:03.125Z,72.47
2018-09-30T02:31:32.747Z,71.94
2018-09-30T02:34:01.925Z,72.72
2018-09-30T02:36:31.043Z,74.76
2018-09-30T02:39:00.221Z,73.11
2018-09-30T02:41:29.435Z,74.48
2018-09-30T02:43:58.725Z,75.30
2018-09-30T02:46:28.041Z,74.87
2018-09-30T02:48:57.321Z,74.14
2018-09-30T02:51:26.509Z,74.56
2018-09-30T02:53:55.718Z,72.33
2018-09-30T02:56:24.923Z,73.49
2018-09-30T02:58:54.232Z,75.10
2018-09-30T03:01:23.529Z,74.53
2018-09-30T03:03:52.731Z,74.57
2018-09-30T03:06:26.877Z,74.95
2018-09-30T03:09:01.217Z,76.21
2018-09-30T03:11:30.495Z,75.15
2018-09-30T03:13:59.796Z,74.08
2018-09-30T03:16:29.049Z,76.96
2018-09-30T03:18:58.395Z,76.29
2018-09-30T03:21:27.822Z,76.32
2018-09-30T03:23:57.060Z,77.50
2018-09-30T03:26:26.301Z,75.43
2018-09-30T03:28:55.546Z,76.28
2018-09-30T03:31:24.799Z,76.26
2018-09-30T03:33:54.110Z,76.21
2018-09-30T03:36:23.337Z,77.09
2018-09-30T03:38:52.597Z,76.59
2018-09-30T03:41:21.837Z,76.41
2018-09-30T03:43:51.081Z,75.69
2018-09-30T03:46:20.342Z,76.70
2018-09-30T03:48:49.626Z,77.11
2018-09-30T03:51:18.869Z,76.59
2018-09-30T03:53:48.141Z,78.58
2018-09-30T03:56:17.331Z,76.96
2018-09-30T03:58:46.540Z,76.15
2018-09-30T04:01:15.982Z,75.37
2018-09-30T04:03:45.251Z,78.10
2018-09-30T04:06:14.428Z,78.28
2018-09-30T04:08:43.615Z,78.75
2018-09-30T04:11:12.898Z,78.30
2018-09-30T04:13:42.066Z,76.39
2018-09-30T04:16:11.330Z,78.88
2018-09-30T04:18:40.673Z,79.50
2018-09-30T04:21:09.992Z,78.75
2018-09-30T04:23:39.261Z,78.78
2018-09-30T04:26:08.474Z,79.01
2018-09-30T04:28:37.727Z,78.60
2018-09-30T04:31:07.035Z,79.29
2018-09-30T04:33:36.328Z,78.17
2018-09-30T04:36:05.607Z,77.74
2018-09-30T04:38:34.861Z,77.37
2018-09-30T04:41:04.122Z,78.99
2018-09-30T04:43:33.209Z,77.90
2018-09-30T04:46:02.349Z,78.05
2018-09-30T04:48:31.602Z,78.29
2018-09-30T04:51:01.025Z,78.03
2018-09-30T04:53:30.307Z,77.95
2018-09-30T04:55:59.514Z,78.38
2018-09-30T04:58:28.846Z,79.79
2018-09-30T05:00:58.121Z,78.71
2018-09-30T05:03:27.353Z,78.82
2018-09-30T05:05:56.652Z,80.53
2018-09-30T05:08:25.974Z,80.92
2018-09-30T05:10:55.137Z,82.04
2018-09-30T05:13:24.303Z,81.56
2018-09-30T05:15:53.742Z,80.68
2018-09-30T05:18:23.113Z,80.42
2018-09-30T05:20:52.441Z,80.18
2018-09-30T05:23:21.945Z,80.68
2018-09-30T05:25:51.297Z,80.69
2018-09-30T05:28:20.653Z,80.42
2018-09-30T05:30:50.061Z,81.35
2018-09-30T05:33:19.274Z,81.18
2018-09-30T05:35:48.582Z,82.29
2018-09-30T05:38:19.336Z,83.46
2018-09-30T05:40:48.601Z,81.81
2018-09-30T05:43:17.837Z,80.50
2018-09-30T05:45:47.106Z,81.76
2018-09-30T05:48:16.344Z,80.51
2018-09-30T05:50:45.624Z,80.09
2018-09-30T05:53:14.893Z,79.58
2018-09-30T05:55:44.206Z,82.05
2018-09-30T05:58:24.136Z,81.49
2018-09-30T06:00:53.754Z,80.06
2018-09-30T06:03:22.873Z,79.96
2018-09-30T06:05:51.745Z,77.74
2018-09-30T06:08:46.605Z,78.73
2018-09-30T06:11:32.724Z,76.26
2018-09-30T06:14:03.159Z,76.42
2018-09-30T06:16:32.712Z,74.54
2018-09-30T06:19:02.704Z,74.37
2018-09-30T06:21:31.929Z,73.54
2018-09-30T06:24:01.162Z,71.68
2018-09-30T06:26:40.886Z,71.51
2018-09-30T06:29:12.511Z,69.36
2018-09-30T06:31:43.356Z,69.08
2018-09-30T06:34:21.957Z,69.24
2018-09-30T06:36:51.084Z,68.95
2018-09-30T06:39:20.257Z,69.43
2018-09-30T06:41:49.448Z,68.70
2018-09-30T06:44:18.601Z,68.25
2018-09-30T06:46:47.801Z,66.94
2018-09-30T06:49:17.280Z,67.45
2018-09-30T06:51:46.368Z,67.16
2018-09-30T06:54:15.577Z,66.33
2018-09-30T06:56:44.641Z,63.40
2018-09-30T06:59:13.850Z,62.11
2018-09-30T07:01:42.929Z,61.36
2018-09-30T07:04:12.037Z,60.70
2018-09-30T07:06:40.788Z,60.54
2018-09-30T07:09:09.598Z,59.06
2018-09-30T07:11:38.368Z,57.91
2018-09-30T07:14:07.138Z,56.55
2018-09-30T07:16:35.969Z,54.23
2018-09-30T07:19:04.784Z,51.69
2018-09-30T07:21:33.562Z,51.01
2018-09-30T07:24:02.346Z,52.43
2018-09-30T07:26:31.105Z,51.18
2018-09-30T07:28:59.872Z,50.16
2018-09-30T07:31:28.641Z,50.42
2018-09-30T07:33:57.409Z,50.96
2018-09-30T07:36:26.173Z,54.84
2018-09-30T07:38:54.959Z,54.74
2018-09-30T07:41:23.705Z,51.37
2018-09-30T07:43:52.485Z,50.82
2018-09-30T07:46:21.243Z,49.64
2018-09-30T07:48:50.016Z,47.02
2018-09-30T07:51:18.772Z,45.92
2018-09-30T07:53:47.534Z,47.43
2018-09-30T07:56:16.321Z,47.63
2018-09-30T07:58:45.089Z,50.22
2018-09-30T08:01:13.857Z,51.64
2018-09-30T08:03:42.645Z,51.39
2018-09-30T08:06:11.400Z,52.58
2018-09-30T08:08:40.209Z,51.97
2018-09-30T08:11:08.977Z,51.74
2018-09-30T08:13:37.746Z,49.26
2018-09-30T08:16:06.656Z,48.72
2018-09-30T08:18:35.416Z,49.63
2018-09-30T08:21:04.168Z,50.46
2018-09-30T08:23:32.937Z,51.73
2018-09-30T08:26:01.733Z,49.96
2018-09-30T08:28:30.501Z,50.42
2018-09-30T08:30:59.277Z,51.66
2018-09-30T08:33:28.041Z,50.28
2018-09-30T08:36:01.903Z,52.89
2018-09-30T08:38:33.105Z,54.98
2018-09-30T08:41:01.905Z,53.69
2018-09-30T08:43:33.333Z,54.17
2018-09-30T08:46:02.165Z,54.30
2018-09-30T08:48:30.960Z,53.82
2018-09-30T08:50:59.800Z,54.33
2018-09-30T08:53:28.792Z,53.75
2018-09-30T08:55:58.171Z,52.96
2018-09-30T08:58:27.665Z,53.36
2018-09-30T09:00:56.495Z,53.28
2018-09-30T09:03:25.992Z,54.40
2018-09-30T09:05:54.773Z,52.99
2018-09-30T09:08:23.532Z,53.82
2018-09-30T09:10:52.308Z,52.11
2018-09-30T09:13:21.196Z,52.50
2018-09-30T09:15:50.281Z,52.28
2018-09-30T09:18:19.028Z,53.86
2018-09-30T09:20:47.802Z,53.28
2018-09-30T09:23:16.559Z,55.00
2018-09-30T09:25:45.356Z,53.42
2018-09-30T09:28:14.149Z,53.45
2018-09-30T09:30:42.966Z,53.88
2018-09-30T09:33:11.814Z,51.53
2018-09-30T09:35:40.513Z,54.45
2018-09-30T09:38:09.306Z,52.30
2018-09-30T09:40:38.077Z,50.59
2018-09-30T09:43:07.043Z,49.98
2018-09-30T09:45:35.800Z,51.90
2018-09-30T09:48:04.604Z,51.81
2018-09-30T09:50:33.350Z,52.89
2018-09-30T09:53:02.109Z,51.02
2018-09-30T09:55:30.864Z,50.18
2018-09-30T09:57:59.636Z,49.96
2018-09-30T10:00:35.669Z,48.87
2018-09-30T10:03:04.442Z,47.27
2018-09-30T10:05:33.193Z,47.18
2018-09-30T10:08:01.983Z,48.24
2018-09-30T10:10:30.772Z,49.38
2018-09-30T10:12:59.545Z,49.19
2018-09-30T10:15:28.327Z,47.91
2018-09-30T10:17:57.086Z,49.51
2018-09-30T10:20:25.942Z,46.97
2018-09-30T10:22:54.746Z,46.43
2018-09-30T10:25:23.550Z,46.20
2018-09-30T10:27:52.560Z,47.85
2018-09-30T10:30:21.333Z,48.00
2018-09-30T10:32:50.257Z,46.95
2018-09-30T10:35:19.023Z,47.47
2018-09-30T10:37:47.834Z,47.94
2018-09-30T10:40:16.612Z,46.98
2018-09-30T10:42:45.359Z,46.87
2018-09-30T10:45:14.140Z,50.11
2018-09-30T10:47:42.919Z,50.22
2018-09-30T10:50:11.670Z,49.78
2018-09-30T10:52:40.421Z,49.15
2018-09-30T10:55:09.280Z,49.90
2018-09-30T10:57:38.061Z,48.77
2018-09-30T11:00:06.888Z,49.93
2018-09-30T11:02:35.632Z,48.97
2018-09-30T11:05:10.996Z,48.35
2018-09-30T11:07:39.753Z,47.08
2018-09-30T11:10:08.600Z,48.12
2018-09-30T11:12:37.368Z,47.50
2018-09-30T11:15:06.300Z,47.86
2018-09-30T11:17:35.256Z,47.17
2018-09-30T11:20:04.033Z,49.42
2018-09-30T11:22:32.801Z,47.58
2018-09-30T11:25:01.568Z,46.63
2018-09-30T11:27:30.325Z,48.22
2018-09-30T11:29:59.073Z,49.59
2018-09-30T11:32:27.825Z,46.71
2018-09-30T11:34:56.594Z,47.09
2018-09-30T11:37:25.381Z,46.54
2018-09-30T11:39:54.158Z,46.15
2018-09-30T11:42:22.930Z,47.09
2018-09-30T11:44:51.845Z,45.54
2018-09-30T11:47:20.604Z,46.05
2018-09-30T11:49:49.371Z,47.13
2018-09-30T11:52:18.132Z,46.51
2018-09-30T11:54:46.878Z,46.60
2018-09-30T11:57:15.673Z,44.08
2018-09-30T11:59:44.443Z,44.76
2018-09-30T12:02:13.266Z,45.17
2018-09-30T12:04:42.021Z,44.71
2018-09-30T12:07:10.786Z,44.43
2018-09-30T12:09:39.552Z,43.59
2018-09-30T12:12:08.345Z,44.91
2018-09-30T12:14:37.113Z,44.80
2018-09-30T12:17:05.909Z,45.35
2018-09-30T12:19:34.715Z,46.31
2018-09-30T12:22:03.475Z,42.88
2018-09-30T12:24:32.265Z,42.96
2018-09-30T12:27:01.025Z,44.07
2018-09-30T12:29:29.769Z,45.04
2018-09-30T12:31:58.524Z,43.12
2018-09-30T12:34:27.289Z,44.28
2018-09-30T12:36:56.053Z,42.04
2018-09-30T12:39:24.879Z,43.70
2018-09-30T12:41:53.619Z,42.81
2018-09-30T12:44:22.393Z,42.66
2018-09-30T12:46:51.140Z,40.56
2018-09-30T12:49:19.914Z,41.35
2018-09-30T12:51:48.677Z,41.12
2018-09-30T12:54:17.521Z,40.10
2018-09-30T12:56:46.309Z,38.10
2018-09-30T12:59:15.158Z,38.35
2018-09-30T13:01:43.896Z,37.82
2018-09-30T13:04:13.072Z,38.00
2018-09-30T13:06:41.838Z,36.14
2018-09-30T13:09:11.040Z,38.05
2018-09-30T13:11:40.141Z,36.69
2018-09-30T13:14:09.118Z,35.13
2018-09-30T13:16:37.905Z,33.34
2018-09-30T13:19:06.681Z,36.93
2018-09-30T13:21:35.449Z,37.29
2018-09-30T13:24:04.213Z,36.61
2018-09-30T13:26:32.987Z,39.35
2018-09-30T13:29:01.796Z,40.17
2018-09-30T13:31:30.597Z,41.53
2018-09-30T13:33:59.357Z,39.70
2018-09-30T13:36:28.244Z,39.78
2018-09-30T13:38:57.009Z,40.96
2018-09-30T13:41:25.806Z,40.35
2018-09-30T13:43:54.553Z,41.41
2018-09-30T13:46:23.317Z,39.64
2018-09-30T13:48:53.638Z,40.40
2018-09-30T13:51:22.465Z,40.07
2018-09-30T13:53:51.233Z,38.90
2018-09-30T13:56:20.001Z,39.43
2018-09-30T13:58:48.790Z,40.69
2018-09-30T14:01:17.744Z,41.21
2018-09-30T14:03:46.504Z,41.85
2018-09-30T14:06:15.266Z,41.58
2018-09-30T14:08:44.053Z,42.21
2018-09-30T14:11:12.806Z,41.92
2018-09-30T14:13:41.977Z,43.09
2018-09-30T14:16:10.962Z,42.41
2018-09-30T14:18:39.729Z,42.12
2018-09-30T14:21:08.477Z,41.47
2018-09-30T14:23:37.541Z,41.83
2018-09-30T14:26:06.716Z,44.29
2018-09-30T14:28:35.517Z,42.91
2018-09-30T14:31:04.697Z,43.10
2018-09-30T14:33:33.485Z,41.60
2018-09-30T14:36:02.496Z,42.15
2018-09-30T14:38:31.253Z,41.31
2018-09-30T14:41:00.009Z,43.21
2018-09-30T14:43:28.764Z,43.46
2018-09-30T14:45:57.542Z,42.55
2018-09-30T14:48:26.341Z,43.57
2018-09-30T14:50:55.090Z,42.82
2018-09-30T14:53:23.850Z,43.26
2018-09-30T14:55:52.650Z,43.36
2018-09-30T14:58:21.424Z,44.50
2018-09-30T15:00:50.183Z,43.70
2018-09-30T15:03:18.990Z,44.15
2018-09-30T15:05:47.949Z,43.50
2018-09-30T15:08:17.389Z,43.67
2018-09-30T15:10:46.173Z,44.37
2018-09-30T15:13:14.925Z,43.11
2018-09-30T15:15:43.709Z,44.51
2018-09-30T15:18:12.460Z,44.79
2018-09-30T15:20:41.233Z,44.41
2018-09-30T15:23:10.052Z,45.23
2018-09-30T15:25:38.824Z,46.62
2018-09-30T15:28:07.704Z,46.78
2018-09-30T15:30:36.477Z,47.34
2018-09-30T15:33:05.237Z,46.87
2018-09-30T15:35:33.997Z,45.41
2018-09-30T15:38:02.824Z,44.87
2018-09-30T15:40:31.597Z,44.17
2018-09-30T15:43:00.654Z,45.33
2018-09-30T15:45:29.437Z,43.64
2018-09-30T15:47:58.190Z,44.93
2018-09-30T15:50:26.968Z,42.84
2018-09-30T15:52:55.721Z,41.04
2018-09-30T15:55:24.468Z,42.10
2018-09-30T15:57:53.484Z,44.03
2018-09-30T16:00:22.273Z,42.80
2018-09-30T16:02:51.033Z,44.52
2018-09-30T16:05:19.814Z,45.23
2018-09-30T16:07:48.572Z,42.96
2018-09-30T16:10:17.321Z,46.40
2018-09-30T16:12:46.089Z,45.55
2018-09-30T16:15:14.905Z,49.62
2018-09-30T16:17:43.663Z,49.12
2018-09-30T16:20:12.613Z,45.96
2018-09-30T16:22:41.384Z,45.70
2018-09-30T16:25:10.161Z,47.27
2018-09-30T16:27:38.934Z,47.22
2018-09-30T16:30:07.799Z,48.24
2018-09-30T16:32:36.571Z,47.95
2018-09-30T16:35:05.365Z,51.60
2018-09-30T16:37:34.156Z,51.94
2018-09-30T16:40:03.008Z,55.00
2018-09-30T16:42:31.783Z,51.28
2018-09-30T16:45:00.537Z,49.82
2018-09-30T16:47:29.297Z,50.28
2018-09-30T16:49:58.096Z,50.70
2018-09-30T16:52:27.066Z,50.25
2018-09-30T16:54:56.101Z,52.69
2018-09-30T16:57:24.972Z,53.15
2018-09-30T16:59:53.768Z,53.52
2018-09-30T17:02:22.534Z,55.23
2018-09-30T17:04:51.299Z,56.69
2018-09-30T17:07:20.085Z,58.39
2018-09-30T17:09:48.850Z,59.24
2018-09-30T17:12:17.617Z,60.31
2018-09-30T17:14:46.384Z,58.40
2018-09-30T17:17:15.173Z,59.75
2018-09-30T17:19:43.932Z,59.26
2018-09-30T17:22:12.692Z,59.61
2018-09-30T17:24:41.453Z,61.79
2018-09-30T17:27:10.205Z,61.96
2018-09-30T17:29:38.974Z,62.03
2018-09-30T17:32:07.781Z,63.18
2018-09-30T17:34:36.577Z,62.99
2018-09-30T17:37:05.568Z,61.42
2018-09-30T17:39:34.324Z,62.98
2018-09-30T17:42:03.133Z,64.47
2018-09-30T17:44:31.925Z,65.17
2018-09-30T17:47:00.729Z,63.38
2018-09-30T17:49:29.501Z,64.48
2018-09-30T17:51:58.394Z,65.53
2018-09-30T17:54:27.154Z,65.90
2018-09-30T17:56:56.501Z,66.09
2018-09-30T17:59:25.287Z,66.84
2018-09-30T18:01:54.049Z,66.56
2018-09-30T18:04:22.830Z,66.71
2018-09-30T18:06:51.601Z,66.84
2018-09-30T18:09:20.424Z,68.81
2018-09-30T18:11:49.189Z,68.19
2018-09-30T18:14:17.989Z,69.05
2018-09-30T18:16:46.762Z,69.74
2018-09-30T18:19:15.561Z,69.22
2018-09-30T18:21:44.332Z,68.92
2018-09-30T18:24:13.105Z,69.67
2018-09-30T18:26:41.878Z,71.33
2018-09-30T18:29:10.725Z,71.15
2018-09-30T18:31:39.713Z,70.54
2018-09-30T18:34:08.467Z,69.34
2018-09-30T18:36:37.273Z,69.68
2018-09-30T18:39:09.429Z,71.36
2018-09-30T18:41:38.183Z,70.41
2018-09-30T18:44:07.086Z,72.27
2018-09-30T18:46:36.102Z,72.43
2018-09-30T18:49:04.933Z,71.98
2018-09-30T18:51:33.725Z,71.99
2018-09-30T18:54:02.480Z,72.20
2018-09-30T18:56:31.348Z,71.28
2018-09-30T18:59:00.129Z,69.01
2018-09-30T19:01:28.935Z,69.07
2018-09-30T19:03:57.701Z,69.00
2018-09-30T19:06:26.468Z,69.35
2018-09-30T19:08:55.285Z,69.76
2018-09-30T19:11:24.273Z,69.81
2018-09-30T19:13:53.049Z,70.70
2018-09-30T19:16:21.853Z,71.49
2018-09-30T19:18:50.669Z,70.89
2018-09-30T19:21:19.450Z,72.86
2018-09-30T19:23:48.201Z,72.85
2018-09-30T19:26:16.985Z,73.24
2018-09-30T19:28:45.766Z,73.45
2018-09-30T19:31:14.553Z,73.02
2018-09-30T19:33:43.332Z,72.56
2018-09-30T19:36:12.118Z,72.68
2018-09-30T19:38:40.957Z,72.92
2018-09-30T19:41:09.713Z,74.33
2018-09-30T19:43:38.777Z,73.12
2018-09-30T19:46:08.077Z,72.94
2018-09-30T19:48:36.941Z,74.30
2018-09-30T19:51:05.697Z,75.44
2018-09-30T19:53:34.485Z,75.06
2018-09-30T19:56:03.510Z,75.25
2018-09-30T19:58:32.296Z,75.83
2018-09-30T20:01:01.071Z,75.50
2018-09-30T20:03:29.897Z,76.76
2018-09-30T20:05:58.673Z,76.02
2018-09-30T20:08:27.453Z,75.97
2018-09-30T20:10:56.237Z,76.61
2018-09-30T20:13:25.018Z,77.75
2018-09-30T20:15:53.840Z,78.06
2018-09-30T20:18:22.616Z,77.50
2018-09-30T20:20:51.402Z,78.17
2018-09-30T20:23:20.170Z,77.85
2018-09-30T20:25:48.960Z,79.20
2018-09-30T20:28:17.814Z,78.68
2018-09-30T20:30:46.594Z,79.73
2018-09-30T20:33:15.397Z,80.11
2018-09-30T20:35:44.352Z,78.39
2018-09-30T20:38:13.168Z,78.40
2018-09-30T20:40:42.640Z,80.57
2018-09-30T20:43:11.420Z,80.02
2018-09-30T20:45:40.613Z,79.13
2018-09-30T20:48:09.928Z,80.39
2018-09-30T20:50:38.705Z,79.16
2018-09-30T20:53:07.534Z,79.31
2018-09-30T20:55:36.358Z,80.40
2018-09-30T20:58:05.130Z,80.61
2018-09-30T21:00:33.917Z,81.10
2018-09-30T21:03:02.693Z,81.51
2018-09-30T21:05:45.349Z,79.96
2018-09-30T21:08:14.101Z,80.50
2018-09-30T21:10:42.889Z,81.50
2018-09-30T21:13:11.653Z,81.38
2018-09-30T21:15:40.465Z,82.30
2018-09-30T21:18:09.233Z,80.83
2018-09-30T21:20:38.035Z,81.35
2018-09-30T21:23:06.810Z,82.17
2018-09-30T21:25:35.643Z,82.11
2018-09-30T21:28:07.309Z,81.98
2018-09-30T21:30:36.061Z,82.42
2018-09-30T21:33:04.856Z,83.49
2018-09-30T21:35:33.621Z,82.76
2018-09-30T21:38:02.404Z,82.24
2018-09-30T21:40:31.222Z,83.08
2018-09-30T21:43:00.017Z,82.99
2018-09-30T21:45:28.789Z,82.97
2018-09-30T21:47:57.573Z,82.96
2018-09-30T21:50:26.353Z,83.98
2018-09-30T21:52:55.113Z,83.85
2018-09-30T21:55:23.896Z,83.87
2018-09-30T21:57:53.061Z,84.39
2018-09-30T22:00:26.989Z,85.08
2018-09-30T22:02:55.768Z,84.94
2018-09-30T22:05:24.532Z,84.43
2018-09-30T22:07:53.324Z,84.14
2018-09-30T22:10:22.102Z,83.47
2018-09-30T22:12:50.889Z,83.29
2018-09-30T22:15:19.768Z,83.23
2018-09-30T22:17:48.531Z,84.36
2018-09-30T22:20:17.308Z,84.76
2018-09-30T22:22:46.069Z,84.54
2018-09-30T22:25:14.840Z,83.99
2018-09-30T22:27:44.161Z,84.29
2018-09-30T22:30:13.020Z,85.41
2018-09-30T22:32:41.817Z,83.70
2018-09-30T22:35:11.058Z,84.19
2018-09-30T22:37:39.828Z,84.89
2018-09-30T22:40:08.738Z,85.52
2018-09-30T22:42:37.925Z,85.61
2018-09-30T22:45:07.109Z,85.07
2018-09-30T22:47:36.608Z,84.48
2018-09-30T22:50:05.656Z,84.80
2018-09-30T22:52:34.436Z,85.10
2018-09-30T22:55:03.313Z,85.71
2018-09-30T22:57:32.069Z,86.78
2018-09-30T23:00:00.821Z,87.14
2018-09-30T23:02:29.596Z,86.44
2018-09-30T23:04:58.380Z,87.50
2018-09-30T23:07:27.133Z,86.42
2018-09-30T23:09:55.917Z,85.48
2018-09-30T23:12:24.697Z,85.29
2018-09-30T23:14:53.489Z,85.36
2018-09-30T23:17:22.617Z,85.05
2018-09-30T23:19:51.775Z,85.96
2018-09-30T23:22:20.914Z,84.83
2018-09-30T23:24:50.029Z,84.95
2018-09-30T23:27:19.100Z,85.15
2018-09-30T23:29:48.420Z,86.41
2018-09-30T23:32:17.511Z,86.61
2018-09-30T23:34:46.653Z,87.67
2018-09-30T23:37:15.721Z,88.41
2018-09-30T23:39:44.948Z,88.21
2018-09-30T23:42:14.157Z,89.40
2018-09-30T23:44:43.297Z,89.63
2018-09-30T23:47:12.452Z,90.20
2018-09-30T23:49:41.680Z,89.91
2018-09-30T23:52:10.732Z,89.84
2018-09-30T23:54:40.049Z,89.59
2018-09-30T23:57:09.193Z,89.89
2018-09-30T23:59:38.293Z,90.37
